Time;durP1;ratioP1;P1;durP2;ratioP2;P2;SDS_P1;SDS_P2;PMS_P1;PMS_P2;Temp;Humidity;BMP_temperature;BMP_pressure;BME280_temperature;BME280_humidity;BME280_pressure;Samples;Min_cycle;Max_cycle;Signal;HPM_P1;HPM_P2
2022/05/26 00:02:00;;;;;;;;;;;20.70;51.10;;;;;;467971;254;1192;-78
2022/05/26 00:04:02;;;;;;;;;;;20.60;51.20;;;;;;468005;254;1170;-78
2022/05/26 00:06:04;;;;;;;;;;;20.60;51.30;;;;;;467995;254;2192;-78
2022/05/26 00:08:05;;;;;;;;;;;20.70;51.20;;;;;;468088;254;1304;-78
2022/05/26 00:10:06;;;;;;;;;;;20.70;51.30;;;;;;468311;254;1459;-78
2022/05/26 00:12:07;;;;;;;;;;;20.70;51.10;;;;;;468030;254;1102;-78
2022/05/26 00:14:08;;;;;;;;;;;20.70;51.20;;;;;;468030;254;1072;-78
2022/05/26 00:16:10;;;;;;;;;;;20.70;51.10;;;;;;468045;254;1169;-78
2022/05/26 00:18:11;;;;;;;;;;;20.60;51.20;;;;;;468060;254;1097;-78
2022/05/26 00:20:13;;;;;;;;;;;20.60;51.20;;;;;;468043;254;1152;-78
2022/05/26 00:22:14;;;;;;;;;;;20.60;51.20;;;;;;468005;254;1132;-78
2022/05/26 00:24:15;;;;;;;;;;;20.60;51.30;;;;;;468020;254;1179;-78
2022/05/26 00:26:17;;;;;;;;;;;20.60;51.30;;;;;;468056;254;2188;-78
2022/05/26 00:28:18;;;;;;;;;;;20.60;51.30;;;;;;468204;254;1339;-78
2022/05/26 00:30:19;;;;;;;;;;;20.70;51.20;;;;;;468115;254;1303;-78
2022/05/26 00:32:20;;;;;;;;;;;20.60;51.20;;;;;;468011;254;1290;-78
2022/05/26 00:34:22;;;;;;;;;;;20.70;51.20;;;;;;468179;254;1102;-79
2022/05/26 00:36:38;;;;;;;;;;;20.70;51.10;;;;;;467983;254;1133;-78
2022/05/26 00:38:39;;;;;;;;;;;20.70;51.10;;;;;;468043;254;1333;-78
2022/05/26 00:40:41;;;;;;;;;;;20.70;51.20;;;;;;468217;254;1246;-78
2022/05/26 00:42:42;;;;;;;;;;;20.70;51.30;;;;;;468034;254;1126;-78
2022/05/26 00:44:44;;;;;;;;;;;20.60;51.30;;;;;;468087;254;2133;-78
2022/05/26 00:46:45;;;;;;;;;;;20.60;51.40;;;;;;468042;254;991;-78
2022/05/26 00:48:47;;;;;;;;;;;20.60;51.40;;;;;;467996;254;1043;-78
2022/05/26 00:50:48;;;;;;;;;;;20.60;51.30;;;;;;467984;254;989;-78
2022/05/26 00:52:49;;;;;;;;;;;20.60;51.40;;;;;;468039;254;976;-78
2022/05/26 00:54:50;;;;;;;;;;;20.60;51.40;;;;;;468052;254;1170;-78
2022/05/26 00:56:52;;;;;;;;;;;20.60;51.40;;;;;;468044;254;1209;-78
2022/05/26 00:58:53;;;;;;;;;;;20.60;51.40;;;;;;468015;254;1199;-78
2022/05/26 01:00:54;;;;;;;;;;;20.60;51.50;;;;;;468032;254;1130;-78
2022/05/26 01:02:56;;;;;;;;;;;20.50;51.40;;;;;;468184;254;1245;-78
2022/05/26 01:04:57;;;;;;;;;;;20.60;51.40;;;;;;468297;254;2132;-78
2022/05/26 01:06:59;;;;;;;;;;;20.60;51.40;;;;;;468097;254;1215;-78
2022/05/26 01:09:00;;;;;;;;;;;20.60;51.50;;;;;;468048;254;1162;-78
2022/05/26 01:11:01;;;;;;;;;;;20.50;51.50;;;;;;468095;254;1180;-78
2022/05/26 01:13:03;;;;;;;;;;;20.50;51.50;;;;;;468056;254;1101;-78
2022/05/26 01:15:04;;;;;;;;;;;20.50;51.50;;;;;;468064;254;1119;-78
2022/05/26 01:17:07;;;;;;;;;;;20.60;51.50;;;;;;468048;254;1148;-78
2022/05/26 01:19:07;;;;;;;;;;;20.60;51.50;;;;;;467930;255;1452;-78
2022/05/26 01:21:08;;;;;;;;;;;20.60;51.40;;;;;;467980;254;1126;-78
2022/05/26 01:23:10;;;;;;;;;;;20.60;51.40;;;;;;468047;255;1121;-78
2022/05/26 01:25:11;;;;;;;;;;;20.70;51.30;;;;;;467996;254;2153;-78
2022/05/26 01:27:12;;;;;;;;;;;20.60;51.20;;;;;;467983;254;1195;-78
2022/05/26 01:29:13;;;;;;;;;;;20.60;51.30;;;;;;468168;254;1066;-78
2022/05/26 01:31:15;;;;;;;;;;;20.60;51.30;;;;;;468049;254;1172;-78
2022/05/26 01:33:16;;;;;;;;;;;20.60;51.40;;;;;;468029;254;1168;-78
2022/05/26 01:35:17;;;;;;;;;;;20.60;51.50;;;;;;467977;254;1133;-78
2022/05/26 01:37:19;;;;;;;;;;;20.50;51.40;;;;;;468284;254;1158;-78
2022/05/26 01:39:20;;;;;;;;;;;20.50;51.40;;;;;;467961;254;1162;-78
2022/05/26 01:41:22;;;;;;;;;;;20.60;51.40;;;;;;467970;254;1197;-78
2022/05/26 01:43:23;;;;;;;;;;;20.60;51.40;;;;;;468017;254;1213;-78
2022/05/26 01:45:24;;;;;;;;;;;20.60;51.40;;;;;;467992;254;2185;-78
2022/05/26 01:47:26;;;;;;;;;;;20.60;51.40;;;;;;468207;254;1102;-78
2022/05/26 01:49:27;;;;;;;;;;;20.50;51.40;;;;;;467969;254;1127;-78
2022/05/26 01:51:29;;;;;;;;;;;20.60;51.40;;;;;;467934;254;989;-78
2022/05/26 01:53:30;;;;;;;;;;;20.60;51.40;;;;;;468341;254;1171;-78
2022/05/26 01:55:31;;;;;;;;;;;20.50;51.40;;;;;;468043;254;1206;-78
2022/05/26 01:57:33;;;;;;;;;;;20.50;51.50;;;;;;468082;254;1109;-78
2022/05/26 01:59:34;;;;;;;;;;;20.50;51.60;;;;;;468058;254;1004;-78
2022/05/26 02:01:35;;;;;;;;;;;20.50;51.50;;;;;;467976;254;1232;-78
2022/05/26 02:03:37;;;;;;;;;;;20.50;51.50;;;;;;468062;254;981;-78
2022/05/26 02:05:38;;;;;;;;;;;20.50;51.50;;;;;;468048;254;2196;-77
2022/05/26 02:07:39;;;;;;;;;;;20.50;51.50;;;;;;468018;254;1086;-78
2022/05/26 02:09:41;;;;;;;;;;;20.50;51.50;;;;;;468077;254;1184;-78
2022/05/26 02:11:42;;;;;;;;;;;20.40;51.50;;;;;;468039;254;1158;-78
2022/05/26 02:13:43;;;;;;;;;;;20.50;51.50;;;;;;468055;254;1171;-78
2022/05/26 02:15:46;;;;;;;;;;;20.50;51.50;;;;;;468051;254;1169;-78
2022/05/26 02:17:46;;;;;;;;;;;20.40;51.50;;;;;;468049;252;1474;-78
2022/05/26 02:19:47;;;;;;;;;;;20.40;51.60;;;;;;468056;254;1118;-78
2022/05/26 02:21:49;;;;;;;;;;;20.40;51.60;;;;;;468152;254;1134;-78
2022/05/26 02:23:50;;;;;;;;;;;20.50;51.60;;;;;;467985;254;1177;-78
2022/05/26 02:25:51;;;;;;;;;;;20.50;51.50;;;;;;467947;254;2204;-78
2022/05/26 02:27:53;;;;;;;;;;;20.40;51.40;;;;;;468151;251;1185;-78
2022/05/26 02:29:55;;;;;;;;;;;20.50;51.40;;;;;;468011;254;1080;-78
2022/05/26 02:31:56;;;;;;;;;;;20.50;51.40;;;;;;468153;255;1416;-78
2022/05/26 02:33:57;;;;;;;;;;;20.50;51.30;;;;;;468296;254;1201;-78
2022/05/26 02:35:58;;;;;;;;;;;20.50;51.30;;;;;;467959;254;1275;-78
2022/05/26 02:38:00;;;;;;;;;;;20.50;51.20;;;;;;468240;251;1171;-78
2022/05/26 02:40:01;;;;;;;;;;;20.50;51.20;;;;;;467994;254;1148;-78
2022/05/26 02:42:02;;;;;;;;;;;20.50;51.30;;;;;;468011;254;1242;-78
2022/05/26 02:44:04;;;;;;;;;;;20.40;51.30;;;;;;468163;254;1105;-78
2022/05/26 02:46:05;;;;;;;;;;;20.50;51.40;;;;;;468252;252;2200;-78
2022/05/26 02:48:07;;;;;;;;;;;20.50;51.30;;;;;;468281;254;1186;-78
2022/05/26 02:50:08;;;;;;;;;;;20.50;51.30;;;;;;468094;254;1136;-78
2022/05/26 02:52:10;;;;;;;;;;;20.40;51.30;;;;;;468002;254;1208;-78
2022/05/26 02:54:11;;;;;;;;;;;20.50;51.10;;;;;;468077;254;1101;-79
2022/05/26 02:56:12;;;;;;;;;;;20.70;50.90;;;;;;468072;254;1262;-78
2022/05/26 02:58:14;;;;;;;;;;;20.80;50.50;;;;;;468177;254;1289;-78
2022/05/26 03:00:15;;;;;;;;;;;20.80;50.50;;;;;;468185;254;1305;-78
2022/05/26 03:02:16;;;;;;;;;;;20.80;50.60;;;;;;468011;254;1143;-78
2022/05/26 03:04:18;;;;;;;;;;;20.80;50.70;;;;;;467966;254;1245;-78
2022/05/26 03:06:19;;;;;;;;;;;20.80;50.70;;;;;;467926;254;2138;-78
2022/05/26 03:08:20;;;;;;;;;;;20.70;50.80;;;;;;468021;254;1185;-78
2022/05/26 03:10:22;;;;;;;;;;;20.70;50.80;;;;;;467979;254;1168;-78
2022/05/26 03:12:23;;;;;;;;;;;20.60;50.90;;;;;;468005;254;1184;-78
2022/05/26 03:14:24;;;;;;;;;;;20.60;50.90;;;;;;468066;254;1120;-78
2022/05/26 03:16:26;;;;;;;;;;;20.50;50.90;;;;;;468067;254;1051;-78
2022/05/26 03:18:27;;;;;;;;;;;20.60;51.00;;;;;;468046;254;1003;-78
2022/05/26 03:20:28;;;;;;;;;;;20.60;51.00;;;;;;468101;254;1246;-78
2022/05/26 03:22:30;;;;;;;;;;;20.60;51.10;;;;;;468066;254;1196;-78
2022/05/26 03:24:31;;;;;;;;;;;20.60;51.00;;;;;;468068;254;1174;-78
2022/05/26 03:26:32;;;;;;;;;;;20.50;50.90;;;;;;468093;254;2200;-78
2022/05/26 03:28:34;;;;;;;;;;;20.60;50.90;;;;;;468148;254;1333;-78
2022/05/26 03:30:35;;;;;;;;;;;20.50;50.90;;;;;;468080;254;1137;-78
2022/05/26 03:32:36;;;;;;;;;;;20.50;51.10;;;;;;468012;254;1126;-78
2022/05/26 03:41:37;;;;;;;;;;;20.50;51.00;;;;;;467556;254;1214;-78
2022/05/26 03:43:38;;;;;;;;;;;20.60;50.90;;;;;;468029;255;1203;-78
2022/05/26 03:45:40;;;;;;;;;;;20.50;50.90;;;;;;468081;254;2204;-78
2022/05/26 03:47:42;;;;;;;;;;;20.60;50.80;;;;;;467758;254;1451;-78
2022/05/26 03:49:43;;;;;;;;;;;20.70;50.50;;;;;;468186;254;1168;-78
2022/05/26 03:51:44;;;;;;;;;;;20.70;50.50;;;;;;467975;251;1166;-78
2022/05/26 03:53:46;;;;;;;;;;;20.70;50.60;;;;;;468050;254;1001;-78
2022/05/26 03:55:47;;;;;;;;;;;20.70;50.60;;;;;;468060;254;996;-78
2022/05/26 03:57:48;;;;;;;;;;;20.70;50.70;;;;;;468022;254;1128;-78
2022/05/26 03:59:50;;;;;;;;;;;20.70;50.80;;;;;;468082;254;978;-78
2022/05/26 04:01:51;;;;;;;;;;;20.70;50.80;;;;;;468047;254;1200;-78
2022/05/26 04:03:52;;;;;;;;;;;20.60;50.70;;;;;;468071;254;966;-78
2022/05/26 04:05:55;;;;;;;;;;;20.60;50.90;;;;;;468011;254;2200;-78
2022/05/26 04:07:55;;;;;;;;;;;20.60;51.00;;;;;;468107;254;1412;-78
2022/05/26 04:09:56;;;;;;;;;;;20.60;51.00;;;;;;467989;254;1061;-78
2022/05/26 04:11:58;;;;;;;;;;;20.60;51.00;;;;;;468213;254;1557;-78
2022/05/26 04:13:59;;;;;;;;;;;20.60;51.00;;;;;;468066;254;1124;-78
2022/05/26 04:16:00;;;;;;;;;;;20.60;51.00;;;;;;468330;251;1274;-78
2022/05/26 04:18:02;;;;;;;;;;;20.50;51.00;;;;;;468253;251;1304;-78
2022/05/26 04:20:03;;;;;;;;;;;20.60;51.00;;;;;;468123;254;1079;-78
2022/05/26 04:22:17;;;;;;;;;;;20.60;51.00;;;;;;467996;251;1126;-78
2022/05/26 04:24:18;;;;;;;;;;;20.50;50.90;;;;;;467991;252;1308;-78
2022/05/26 04:26:20;;;;;;;;;;;20.60;51.00;;;;;;468093;251;2212;-78
2022/05/26 04:28:21;;;;;;;;;;;20.50;51.00;;;;;;468252;254;1439;-78
2022/05/26 04:30:22;;;;;;;;;;;20.50;50.90;;;;;;468069;254;1113;-78
2022/05/26 04:32:23;;;;;;;;;;;20.50;50.90;;;;;;468140;254;1236;-78
2022/05/26 04:34:25;;;;;;;;;;;20.50;50.90;;;;;;468040;254;1187;-78
2022/05/26 04:36:26;;;;;;;;;;;20.50;51.00;;;;;;468032;254;1139;-78
2022/05/26 04:38:27;;;;;;;;;;;20.40;51.10;;;;;;468149;254;1169;-78
2022/05/26 04:40:29;;;;;;;;;;;20.40;51.20;;;;;;468039;254;1097;-78
2022/05/26 04:42:30;;;;;;;;;;;20.40;51.20;;;;;;468079;254;1168;-78
2022/05/26 04:44:32;;;;;;;;;;;20.40;51.30;;;;;;468142;251;1141;-78
2022/05/26 04:46:33;;;;;;;;;;;20.40;51.30;;;;;;468068;252;2129;-78
2022/05/26 04:48:34;;;;;;;;;;;20.40;51.20;;;;;;468111;254;1197;-78
2022/05/26 04:50:37;;;;;;;;;;;20.50;51.20;;;;;;468078;254;1083;-78
2022/05/26 04:52:37;;;;;;;;;;;20.60;51.20;;;;;;468008;255;1410;-78
2022/05/26 04:54:38;;;;;;;;;;;20.50;51.20;;;;;;468038;254;1144;-78
2022/05/26 04:56:40;;;;;;;;;;;20.50;51.30;;;;;;468006;254;1150;-78
2022/05/26 04:58:41;;;;;;;;;;;20.60;51.20;;;;;;468059;254;1169;-78
2022/05/26 05:00:42;;;;;;;;;;;20.50;51.20;;;;;;468043;254;1107;-78
2022/05/26 05:02:44;;;;;;;;;;;20.50;51.20;;;;;;468072;254;1191;-78
2022/05/26 05:04:48;;;;;;;;;;;20.50;51.20;;;;;;468125;254;1287;-78
2022/05/26 05:06:46;;;;;;;;;;;20.50;51.20;;;;;;467815;254;2141;-78
2022/05/26 05:08:48;;;;;;;;;;;20.50;51.20;;;;;;468122;254;949;-78
2022/05/26 05:10:49;;;;;;;;;;;20.50;51.10;;;;;;468204;254;1179;-78
2022/05/26 05:12:50;;;;;;;;;;;20.60;51.20;;;;;;468032;254;1202;-78
2022/05/26 05:14:52;;;;;;;;;;;20.50;51.10;;;;;;468082;254;1111;-78
2022/05/26 05:16:53;;;;;;;;;;;20.60;51.20;;;;;;468019;254;1181;-78
2022/05/26 05:18:54;;;;;;;;;;;20.50;51.10;;;;;;468070;254;1129;-78
2022/05/26 05:20:56;;;;;;;;;;;20.50;51.10;;;;;;468096;254;1194;-78
2022/05/26 05:22:57;;;;;;;;;;;20.40;51.20;;;;;;468064;254;1063;-78
2022/05/26 05:24:59;;;;;;;;;;;20.40;51.30;;;;;;468101;254;1166;-78
2022/05/26 05:27:00;;;;;;;;;;;20.50;51.30;;;;;;468262;254;2192;-78
2022/05/26 05:29:01;;;;;;;;;;;20.50;51.20;;;;;;468059;254;1201;-78
2022/05/26 05:31:03;;;;;;;;;;;20.50;51.30;;;;;;468119;254;1168;-78
2022/05/26 05:33:04;;;;;;;;;;;20.60;51.20;;;;;;468065;254;1063;-78
2022/05/26 05:35:05;;;;;;;;;;;20.50;51.10;;;;;;468295;254;1082;-78
2022/05/26 05:37:07;;;;;;;;;;;20.60;51.20;;;;;;467928;254;1082;-78
2022/05/26 05:39:08;;;;;;;;;;;20.60;51.00;;;;;;468068;254;1180;-78
2022/05/26 05:41:09;;;;;;;;;;;20.60;51.10;;;;;;468078;254;1150;-78
2022/05/26 05:43:11;;;;;;;;;;;20.60;51.10;;;;;;468068;254;1164;-78
2022/05/26 05:45:12;;;;;;;;;;;20.60;51.10;;;;;;467955;254;1154;-78
2022/05/26 05:47:13;;;;;;;;;;;20.60;51.20;;;;;;467888;254;2196;-78
2022/05/26 05:49:15;;;;;;;;;;;20.60;51.30;;;;;;468014;254;1137;-78
2022/05/26 05:51:17;;;;;;;;;;;20.60;51.30;;;;;;467946;254;1222;-78
2022/05/26 05:53:18;;;;;;;;;;;20.50;51.20;;;;;;468317;254;1324;-78
2022/05/26 05:55:19;;;;;;;;;;;20.50;51.30;;;;;;468400;252;1298;-78
2022/05/26 05:57:20;;;;;;;;;;;20.60;51.30;;;;;;468275;254;1157;-78
2022/05/26 05:59:21;;;;;;;;;;;20.50;51.30;;;;;;468079;254;1158;-78
2022/05/26 06:01:23;;;;;;;;;;;20.60;51.40;;;;;;467986;254;1120;-78
2022/05/26 06:03:24;;;;;;;;;;;20.60;51.40;;;;;;468035;254;1165;-78
2022/05/26 06:05:26;;;;;;;;;;;20.50;51.20;;;;;;468250;254;1122;-78
2022/05/26 06:07:27;;;;;;;;;;;20.50;51.30;;;;;;468003;254;2204;-78
2022/05/26 06:09:28;;;;;;;;;;;20.50;51.40;;;;;;468313;254;992;-78
2022/05/26 06:11:31;;;;;;;;;;;20.50;51.40;;;;;;467997;254;1142;-78
2022/05/26 06:13:31;;;;;;;;;;;20.50;51.50;;;;;;468166;255;1571;-78
2022/05/26 06:15:33;;;;;;;;;;;20.60;51.50;;;;;;468057;254;1207;-78
2022/05/26 06:17:34;;;;;;;;;;;20.50;51.40;;;;;;468270;254;1440;-78
2022/05/26 06:19:35;;;;;;;;;;;20.60;51.30;;;;;;468092;254;1213;-78
2022/05/26 06:21:36;;;;;;;;;;;20.50;51.30;;;;;;468014;251;1245;-79
2022/05/26 06:23:38;;;;;;;;;;;20.70;50.80;;;;;;468293;252;1269;-78
2022/05/26 06:25:39;;;;;;;;;;;20.90;50.50;;;;;;468005;254;1021;-78
2022/05/26 06:30:00;;;;;;;;;;;20.80;50.50;;;;;;474137;251;1026;-78
2022/05/26 06:38:59;;;;;;;;;;;20.60;51.00;;;;;;474118;251;1049;-78
2022/05/26 06:42:05;;;;;;;;;;;20.50;51.00;;;;;;474086;251;961;-78
2022/05/26 06:43:02;;;;;;;;;;;20.50;51.30;;;;;;466188;255;1268;-78
2022/05/26 06:45:03;;;;;;;;;;;20.50;51.40;;;;;;475645;250;1183;-78
2022/05/26 06:47:05;;;;;;;;;;;20.50;51.50;;;;;;468042;255;2192;-78
2022/05/26 06:49:06;;;;;;;;;;;20.50;51.50;;;;;;468069;254;1092;-78
2022/05/26 06:51:07;;;;;;;;;;;20.50;51.40;;;;;;468033;254;989;-78
2022/05/26 06:53:09;;;;;;;;;;;20.70;51.00;;;;;;468043;254;1118;-78
2022/05/26 06:55:10;;;;;;;;;;;20.90;50.80;;;;;;468070;254;1092;-78
2022/05/26 06:57:12;;;;;;;;;;;21.00;50.40;;;;;;468003;254;1008;-78
2022/05/26 06:59:13;;;;;;;;;;;20.90;50.50;;;;;;468081;254;1314;-78
2022/05/26 07:01:15;;;;;;;;;;;20.80;50.70;;;;;;468042;254;1061;-78
2022/05/26 07:03:16;;;;;;;;;;;20.60;50.90;;;;;;468049;254;1369;-78
2022/05/26 07:05:18;;;;;;;;;;;20.50;50.90;;;;;;468005;254;1181;-78
2022/05/26 07:07:19;;;;;;;;;;;20.50;51.20;;;;;;467951;254;2137;-78
2022/05/26 07:09:20;;;;;;;;;;;20.50;51.40;;;;;;468140;251;1155;-78
2022/05/26 07:11:21;;;;;;;;;;;20.50;51.30;;;;;;467969;254;1099;-78
2022/05/26 07:13:24;;;;;;;;;;;20.50;51.30;;;;;;467972;254;1254;-78
2022/05/26 07:15:25;;;;;;;;;;;20.50;51.30;;;;;;468081;254;1472;-78
2022/05/26 07:17:25;;;;;;;;;;;20.50;51.30;;;;;;468038;254;1101;-78
2022/05/26 07:19:27;;;;;;;;;;;20.60;51.40;;;;;;468100;254;1161;-78
2022/05/26 07:21:28;;;;;;;;;;;20.60;51.20;;;;;;468005;254;1129;-78
2022/05/26 07:23:30;;;;;;;;;;;20.60;51.20;;;;;;468035;254;1143;-78
2022/05/26 07:25:32;;;;;;;;;;;20.60;51.20;;;;;;468043;254;1175;-78
2022/05/26 07:27:33;;;;;;;;;;;20.50;51.30;;;;;;468049;254;2141;-79
2022/05/26 07:29:34;;;;;;;;;;;20.50;51.30;;;;;;468010;254;1332;-78
2022/05/26 07:31:36;;;;;;;;;;;20.40;51.20;;;;;;467950;254;1033;-78
2022/05/26 07:33:37;;;;;;;;;;;20.50;51.30;;;;;;468285;254;1501;-78
2022/05/26 07:35:39;;;;;;;;;;;20.50;51.30;;;;;;468009;254;993;-78
2022/05/26 07:42:20;;;;;;;;;;;20.50;51.20;;;;;;473991;250;1168;-78
2022/05/26 07:44:21;;;;;;;;;;;20.50;51.20;;;;;;474179;251;1284;-78
2022/05/26 07:46:23;;;;;;;;;;;20.50;51.30;;;;;;476023;250;1124;-79
2022/05/26 07:48:24;;;;;;;;;;;20.40;51.20;;;;;;474303;251;2254;-79
2022/05/26 07:50:25;;;;;;;;;;;20.40;51.30;;;;;;474064;251;1133;-78
2022/05/26 07:52:27;;;;;;;;;;;20.30;51.40;;;;;;467696;255;1176;-78
2022/05/26 07:54:29;;;;;;;;;;;20.60;51.00;;;;;;468055;255;1164;-79
2022/05/26 07:56:30;;;;;;;;;;;20.80;50.50;;;;;;468037;254;1226;-79
2022/05/26 07:58:32;;;;;;;;;;;20.80;50.50;;;;;;468068;254;1244;-78
2022/05/26 08:00:33;;;;;;;;;;;20.70;50.50;;;;;;468073;254;1208;-78
2022/05/26 08:02:34;;;;;;;;;;;20.70;50.60;;;;;;468035;254;1118;-78
2022/05/26 08:04:35;;;;;;;;;;;20.70;50.70;;;;;;468115;254;972;-78
2022/05/26 08:06:37;;;;;;;;;;;20.70;50.80;;;;;;468097;254;1080;-78
2022/05/26 08:08:38;;;;;;;;;;;20.70;50.80;;;;;;468080;254;2189;-78
2022/05/26 08:10:40;;;;;;;;;;;20.70;50.70;;;;;;468040;254;1214;-78
2022/05/26 08:12:41;;;;;;;;;;;20.70;50.80;;;;;;468053;254;1082;-78
2022/05/26 08:14:42;;;;;;;;;;;20.60;50.90;;;;;;468052;254;1266;-78
2022/05/26 08:16:43;;;;;;;;;;;20.70;51.00;;;;;;468027;254;1110;-79
2022/05/26 08:18:45;;;;;;;;;;;20.60;50.90;;;;;;468131;254;1121;-79
2022/05/26 08:20:46;;;;;;;;;;;20.60;50.90;;;;;;468290;254;1282;-79
2022/05/26 08:22:48;;;;;;;;;;;20.60;50.90;;;;;;468295;254;1087;-78
2022/05/26 08:24:49;;;;;;;;;;;20.60;51.00;;;;;;468243;252;1159;-78
2022/05/26 08:26:50;;;;;;;;;;;20.60;51.10;;;;;;468189;254;1109;-78
2022/05/26 08:28:52;;;;;;;;;;;20.60;51.00;;;;;;468213;254;2200;-78
2022/05/26 08:30:53;;;;;;;;;;;20.60;50.90;;;;;;468112;254;1201;-78
2022/05/26 08:32:54;;;;;;;;;;;20.60;50.90;;;;;;468035;251;1098;-78
2022/05/26 08:34:56;;;;;;;;;;;20.60;50.90;;;;;;467948;254;1148;-78
2022/05/26 08:36:57;;;;;;;;;;;20.60;51.00;;;;;;468096;252;1087;-78
2022/05/26 08:38:58;;;;;;;;;;;20.60;50.90;;;;;;468061;254;1125;-78
2022/05/26 08:41:00;;;;;;;;;;;20.50;50.90;;;;;;468052;254;1003;-78
2022/05/26 08:43:01;;;;;;;;;;;20.50;51.10;;;;;;468211;254;1067;-78
2022/05/26 08:45:02;;;;;;;;;;;20.50;51.20;;;;;;468042;250;1296;-78
2022/05/26 08:47:04;;;;;;;;;;;20.50;51.30;;;;;;467966;254;1162;-78
2022/05/26 08:49:06;;;;;;;;;;;20.50;51.30;;;;;;468038;254;2208;-78
2022/05/26 08:51:07;;;;;;;;;;;20.50;51.00;;;;;;468001;254;1383;-78
2022/05/26 08:53:08;;;;;;;;;;;20.60;50.70;;;;;;467990;254;1477;-78
2022/05/26 08:55:09;;;;;;;;;;;20.80;50.30;;;;;;468100;254;1076;-78
2022/05/26 08:57:10;;;;;;;;;;;21.00;50.20;;;;;;468003;254;1259;-78
2022/05/26 08:59:12;;;;;;;;;;;20.90;50.10;;;;;;468022;254;1003;-78
2022/05/26 09:01:13;;;;;;;;;;;20.80;50.20;;;;;;468083;254;1206;-78
2022/05/26 09:03:14;;;;;;;;;;;20.80;50.30;;;;;;468043;254;1208;-78
2022/05/26 09:05:16;;;;;;;;;;;20.80;50.40;;;;;;468103;251;1126;-78
2022/05/26 09:14:15;;;;;;;;;;;20.70;50.60;;;;;;474189;249;1176;-78
2022/05/26 09:16:16;;;;;;;;;;;20.70;50.40;;;;;;475913;250;1146;-78
2022/05/26 09:18:18;;;;;;;;;;;20.80;50.30;;;;;;474166;251;1207;-78
2022/05/26 09:20:19;;;;;;;;;;;20.80;50.20;;;;;;474068;251;1140;-78
2022/05/26 09:22:21;;;;;;;;;;;20.70;50.40;;;;;;467692;255;1161;-78
2022/05/26 09:24:24;;;;;;;;;;;20.70;50.50;;;;;;468068;255;1238;-78
2022/05/26 09:26:24;;;;;;;;;;;20.70;50.60;;;;;;474160;250;1267;-78
2022/05/26 09:28:26;;;;;;;;;;;20.60;50.80;;;;;;474073;250;2185;-78
2022/05/26 09:30:27;;;;;;;;;;;20.60;50.90;;;;;;474039;251;1137;-78
2022/05/26 09:32:28;;;;;;;;;;;20.60;50.90;;;;;;475906;250;1236;-78
2022/05/26 09:34:32;;;;;;;;;;;20.60;50.90;;;;;;474158;251;1105;-78
2022/05/26 09:36:31;;;;;;;;;;;20.50;50.90;;;;;;467490;255;1415;-78
2022/05/26 09:38:33;;;;;;;;;;;20.50;50.90;;;;;;475606;250;1088;-79
2022/05/26 09:40:34;;;;;;;;;;;20.50;51.00;;;;;;468067;255;958;-78
2022/05/26 09:42:35;;;;;;;;;;;20.60;50.90;;;;;;467985;254;1094;-78
2022/05/26 09:44:37;;;;;;;;;;;20.60;50.90;;;;;;468152;254;1124;-78
2022/05/26 09:46:38;;;;;;;;;;;20.60;50.90;;;;;;467984;254;1247;-78
2022/05/26 09:48:39;;;;;;;;;;;20.60;51.00;;;;;;468158;254;2195;-78
2022/05/26 09:50:41;;;;;;;;;;;20.60;50.90;;;;;;468046;254;1109;-78
2022/05/26 09:52:44;;;;;;;;;;;20.70;50.80;;;;;;468040;254;1083;-78
2022/05/26 09:54:44;;;;;;;;;;;20.60;50.70;;;;;;467926;253;1484;-78
2022/05/26 09:56:45;;;;;;;;;;;20.60;50.70;;;;;;467952;254;1175;-78
2022/05/26 09:58:47;;;;;;;;;;;20.60;50.70;;;;;;468092;254;1182;-78
2022/05/26 10:00:48;;;;;;;;;;;20.70;50.80;;;;;;468151;254;1145;-78
2022/05/26 10:02:49;;;;;;;;;;;20.70;50.80;;;;;;468036;254;1174;-78
2022/05/26 10:04:51;;;;;;;;;;;20.60;50.90;;;;;;468049;254;1289;-78
2022/05/26 10:06:52;;;;;;;;;;;20.60;50.90;;;;;;468086;254;1270;-78
2022/05/26 10:08:53;;;;;;;;;;;20.60;51.00;;;;;;467993;254;2208;-78
2022/05/26 10:10:55;;;;;;;;;;;20.60;50.90;;;;;;467925;254;1128;-78
2022/05/26 10:12:56;;;;;;;;;;;20.60;50.90;;;;;;467919;254;1136;-78
2022/05/26 10:14:58;;;;;;;;;;;20.60;50.90;;;;;;468234;254;1154;-78
2022/05/26 10:16:59;;;;;;;;;;;20.60;50.90;;;;;;468076;254;1503;-78
2022/05/26 10:19:00;;;;;;;;;;;20.60;51.00;;;;;;467968;254;1271;-78
2022/05/26 10:21:02;;;;;;;;;;;20.60;51.00;;;;;;468030;254;1251;-78
2022/05/26 10:23:03;;;;;;;;;;;20.60;51.00;;;;;;468127;254;1091;-78
2022/05/26 10:25:04;;;;;;;;;;;20.60;51.00;;;;;;467974;254;1121;-78
2022/05/26 10:27:06;;;;;;;;;;;20.60;51.00;;;;;;468144;254;1119;-78
2022/05/26 10:29:07;;;;;;;;;;;20.60;51.00;;;;;;468022;254;2133;-78
2022/05/26 10:31:08;;;;;;;;;;;20.60;51.00;;;;;;468137;254;1170;-78
2022/05/26 10:33:10;;;;;;;;;;;20.60;50.90;;;;;;468110;254;1167;-78
2022/05/26 10:35:11;;;;;;;;;;;20.60;50.90;;;;;;467989;254;1082;-78
2022/05/26 10:37:12;;;;;;;;;;;20.70;50.90;;;;;;467943;254;1144;-78
2022/05/26 10:39:14;;;;;;;;;;;20.70;50.80;;;;;;467978;254;1198;-78
2022/05/26 10:41:15;;;;;;;;;;;20.70;50.80;;;;;;467944;254;1120;-78
2022/05/26 10:43:18;;;;;;;;;;;20.70;50.70;;;;;;468123;254;1114;-78
2022/05/26 10:45:18;;;;;;;;;;;20.70;50.60;;;;;;467990;255;1395;-78
2022/05/26 10:47:19;;;;;;;;;;;20.70;50.70;;;;;;468076;254;1122;-78
2022/05/26 10:49:20;;;;;;;;;;;20.70;50.70;;;;;;467996;254;2208;-78
2022/05/26 10:51:22;;;;;;;;;;;20.70;50.80;;;;;;468029;252;1193;-79
2022/05/26 10:53:25;;;;;;;;;;;20.60;50.90;;;;;;468109;254;979;-78
2022/05/26 10:55:26;;;;;;;;;;;20.60;50.90;;;;;;468134;255;1414;-78
2022/05/26 10:57:26;;;;;;;;;;;20.60;50.90;;;;;;468044;254;1315;-78
2022/05/26 10:59:28;;;;;;;;;;;20.60;50.90;;;;;;468230;251;1192;-78
2022/05/26 11:01:29;;;;;;;;;;;20.60;50.90;;;;;;468036;254;1188;-78
2022/05/26 11:03:31;;;;;;;;;;;20.50;50.90;;;;;;468058;254;1159;-78
2022/05/26 11:05:32;;;;;;;;;;;20.60;51.00;;;;;;468123;252;1483;-78
2022/05/26 11:07:33;;;;;;;;;;;20.60;50.90;;;;;;468114;254;1228;-78
2022/05/26 11:09:35;;;;;;;;;;;20.60;51.00;;;;;;468032;254;2129;-78
2022/05/26 11:11:36;;;;;;;;;;;20.70;51.00;;;;;;468148;254;1232;-78
2022/05/26 11:13:38;;;;;;;;;;;20.70;51.00;;;;;;468057;254;1111;-78
2022/05/26 11:17:58;;;;;;;;;;;20.70;50.90;;;;;;474315;251;1142;-78
2022/05/26 11:20:00;;;;;;;;;;;20.70;50.80;;;;;;474125;250;1067;-78
2022/05/26 11:22:01;;;;;;;;;;;20.70;50.90;;;;;;474182;250;1137;-78
2022/05/26 11:24:03;;;;;;;;;;;20.60;50.90;;;;;;467618;255;985;-78
2022/05/26 11:26:04;;;;;;;;;;;20.60;50.90;;;;;;468071;255;991;-78
2022/05/26 11:28:05;;;;;;;;;;;20.60;51.00;;;;;;468278;254;1057;-78
2022/05/26 11:30:07;;;;;;;;;;;20.50;51.00;;;;;;468025;254;2193;-78
2022/05/26 11:36:47;;;;;;;;;;;20.70;51.00;;;;;;474005;251;1194;-78
2022/05/26 11:38:48;;;;;;;;;;;20.70;51.00;;;;;;474086;251;1194;-78
2022/05/26 11:40:50;;;;;;;;;;;20.70;51.00;;;;;;475988;250;1144;-78
2022/05/26 11:42:51;;;;;;;;;;;20.60;51.00;;;;;;474018;251;1151;-78
2022/05/26 11:44:52;;;;;;;;;;;20.50;51.10;;;;;;474038;251;1116;-78
2022/05/26 11:46:56;;;;;;;;;;;20.50;51.10;;;;;;476005;250;1306;-78
2022/05/26 11:48:55;;;;;;;;;;;20.50;51.20;;;;;;474194;251;2189;-78
2022/05/26 11:50:56;;;;;;;;;;;20.60;51.30;;;;;;474032;251;1027;-78
2022/05/26 11:52:58;;;;;;;;;;;20.50;51.20;;;;;;476194;250;1154;-78
2022/05/26 11:55:02;;;;;;;;;;;20.60;51.30;;;;;;474022;251;1054;-78
2022/05/26 11:57:01;;;;;;;;;;;20.50;51.30;;;;;;467356;255;1423;-78
2022/05/26 11:59:02;;;;;;;;;;;20.60;51.20;;;;;;468029;255;979;-78
2022/05/26 12:01:03;;;;;;;;;;;20.60;51.10;;;;;;468035;254;988;-78
2022/05/26 12:03:05;;;;;;;;;;;20.50;51.00;;;;;;468000;254;1186;-78
2022/05/26 12:05:06;;;;;;;;;;;20.50;51.20;;;;;;468090;254;977;-78
2022/05/26 12:07:07;;;;;;;;;;;20.50;51.30;;;;;;467982;254;970;-78
2022/05/26 12:09:09;;;;;;;;;;;20.40;51.40;;;;;;468005;254;2192;-78
2022/05/26 12:11:12;;;;;;;;;;;20.50;51.40;;;;;;468016;254;1089;-78
2022/05/26 12:13:11;;;;;;;;;;;20.50;51.20;;;;;;468197;255;1461;-78
2022/05/26 12:15:13;;;;;;;;;;;20.50;51.20;;;;;;467940;255;1332;-78
2022/05/26 12:17:14;;;;;;;;;;;20.50;51.20;;;;;;467906;254;1176;-78
2022/05/26 12:19:15;;;;;;;;;;;20.50;51.20;;;;;;467977;254;1193;-78
2022/05/26 12:21:17;;;;;;;;;;;20.50;51.30;;;;;;467949;254;1126;-78
2022/05/26 12:23:18;;;;;;;;;;;20.50;51.20;;;;;;468006;254;1241;-78
2022/05/26 12:25:19;;;;;;;;;;;20.50;51.20;;;;;;468230;254;1129;-78
2022/05/26 12:27:21;;;;;;;;;;;20.60;51.30;;;;;;468189;254;1131;-78
2022/05/26 12:29:22;;;;;;;;;;;20.60;51.20;;;;;;467991;254;2197;-78
2022/05/26 12:31:23;;;;;;;;;;;20.60;51.00;;;;;;467964;254;1158;-78
2022/05/26 12:33:25;;;;;;;;;;;20.70;51.00;;;;;;467993;251;1290;-78